createdAt,value
2023-04-11T00:01:04.757Z,100.00
2023-04-11T00:05:05.662Z,100.00
2023-04-11T00:09:00.103Z,100.00
2023-04-11T00:13:00.778Z,100.00
2023-04-11T00:16:58.490Z,100.00
2023-04-11T00:20:59.044Z,100.00
2023-04-11T00:24:56.628Z,100.00
2023-04-11T00:28:57.359Z,100.00
2023-04-11T00:32:52.027Z,100.00
2023-04-11T00:36:58.608Z,100.00
2023-04-11T00:40:58.492Z,100.00
2023-04-11T00:44:57.534Z,100.00
2023-04-11T00:48:46.940Z,100.00
2023-04-11T00:52:41.650Z,100.00
2023-04-11T00:56:31.594Z,100.00
2023-04-11T01:00:18.710Z,100.00
2023-04-11T01:04:06.811Z,100.00
2023-04-11T01:07:53.312Z,100.00
2023-04-11T01:11:41.302Z,100.00
2023-04-11T01:15:27.878Z,100.00
2023-04-11T01:19:16.313Z,100.00
2023-04-11T01:23:04.795Z,100.00
2023-04-11T01:26:52.730Z,100.00
2023-04-11T01:30:39.924Z,100.00
2023-04-11T01:34:28.926Z,100.00
2023-04-11T01:38:16.465Z,100.00
2023-04-11T01:42:03.022Z,100.00
2023-04-11T01:46:02.601Z,100.00
2023-04-11T01:50:06.184Z,100.00
2023-04-11T01:54:05.754Z,100.00
2023-04-11T01:58:08.740Z,100.00
2023-04-11T02:02:12.824Z,100.00
2023-04-11T02:06:16.313Z,100.00
2023-04-11T02:10:19.661Z,100.00
2023-04-11T02:14:22.775Z,100.00
2023-04-11T02:18:24.648Z,100.00
2023-04-11T02:22:27.858Z,100.00
2023-04-11T02:26:27.690Z,100.00
2023-04-11T02:30:41.881Z,100.00
2023-04-11T02:34:42.825Z,100.00
2023-04-11T02:38:46.273Z,100.00
2023-04-11T02:42:45.637Z,100.00
2023-04-11T02:46:49.298Z,100.00
2023-04-11T02:50:51.831Z,100.00
2023-04-11T02:54:55.162Z,100.00
2023-04-11T02:58:58.117Z,100.00
2023-04-11T03:03:02.594Z,100.00
2023-04-11T03:06:44.907Z,100.00
2023-04-11T03:10:47.839Z,100.00
2023-04-11T03:14:51.744Z,100.00
2023-04-11T03:18:52.928Z,100.00
2023-04-11T03:22:55.670Z,100.00
2023-04-11T03:26:57.833Z,100.00
2023-04-11T03:31:05.781Z,100.00
2023-04-11T03:35:07.034Z,100.00
2023-04-11T03:39:10.686Z,100.00
2023-04-11T03:43:10.937Z,100.00
2023-04-11T03:47:14.449Z,100.00
2023-04-11T03:51:14.910Z,100.00
2023-04-11T03:55:23.002Z,100.00
2023-04-11T03:59:25.746Z,100.00
2023-04-11T04:03:29.272Z,100.00
2023-04-11T04:07:34.893Z,100.00
2023-04-11T04:11:44.909Z,100.00
2023-04-11T04:15:56.582Z,100.00
2023-04-11T04:19:56.963Z,100.00
2023-04-11T04:24:07.974Z,100.00
2023-04-11T04:28:36.776Z,100.00
2023-04-11T04:32:39.931Z,100.00
2023-04-11T04:36:59.118Z,100.00
2023-04-11T04:41:09.466Z,100.00
2023-04-11T04:45:12.092Z,100.00
2023-04-11T04:49:17.083Z,100.00
2023-04-11T04:53:18.802Z,100.00
2023-04-11T04:57:25.506Z,100.00
2023-04-11T05:01:30.210Z,100.00
2023-04-11T05:05:34.989Z,100.00
2023-04-11T05:09:37.068Z,100.00
2023-04-11T05:13:52.042Z,100.00
2023-04-11T05:17:55.803Z,100.00
2023-04-11T05:22:00.052Z,100.00
2023-04-11T05:26:06.045Z,100.00
2023-04-11T05:30:09.733Z,100.00
2023-04-11T05:34:13.070Z,100.00
2023-04-11T05:38:17.107Z,100.00
2023-04-11T05:42:16.980Z,100.00
2023-04-11T05:46:24.879Z,100.00
2023-04-11T05:50:24.953Z,100.00
2023-04-11T05:54:28.647Z,100.00
2023-04-11T05:58:28.839Z,100.00
2023-04-11T06:02:31.407Z,100.00
2023-04-11T06:06:36.410Z,100.00
2023-04-11T06:10:39.261Z,100.00
2023-04-11T06:14:45.174Z,100.00
2023-04-11T06:18:48.061Z,100.00
2023-04-11T06:22:31.709Z,100.00
2023-04-11T06:26:31.125Z,100.00
2023-04-11T06:30:34.245Z,100.00
2023-04-11T06:34:35.294Z,100.00
2023-04-11T06:38:38.662Z,98.91
2023-04-11T06:42:36.909Z,95.56
2023-04-11T06:46:38.276Z,98.55
2023-04-11T06:50:40.388Z,99.87
2023-04-11T06:54:40.755Z,99.60
2023-04-11T06:58:38.248Z,100.00
2023-04-11T07:02:39.014Z,96.58
2023-04-11T07:06:36.512Z,94.18
2023-04-11T07:10:37.456Z,98.55
2023-04-11T07:14:42.787Z,99.15
2023-04-11T07:18:44.913Z,97.49
2023-04-11T07:22:37.371Z,95.09
2023-04-11T07:26:38.103Z,95.83
2023-04-11T07:30:35.458Z,98.64
2023-04-11T07:34:37.340Z,95.21
2023-04-11T07:38:34.590Z,96.07
2023-04-11T07:42:36.234Z,97.32
2023-04-11T07:46:33.290Z,93.24
2023-04-11T07:50:33.834Z,93.56
2023-04-11T07:54:30.553Z,91.30
2023-04-11T07:58:30.719Z,90.84
2023-04-11T08:02:27.810Z,88.00
2023-04-11T08:06:28.241Z,85.85
2023-04-11T08:10:25.414Z,85.73
2023-04-11T08:14:26.140Z,86.43
2023-04-11T08:18:23.851Z,84.72
2023-04-11T08:22:24.412Z,87.13
2023-04-11T08:26:21.601Z,88.30
2023-04-11T08:30:25.677Z,77.62
2023-04-11T08:34:23.339Z,72.79
2023-04-11T08:38:23.543Z,76.46
2023-04-11T08:42:09.782Z,76.70
2023-04-11T08:45:56.092Z,77.78
2023-04-11T08:49:42.328Z,75.09
2023-04-11T08:53:29.017Z,75.23
2023-04-11T08:57:15.189Z,72.00
2023-04-11T09:01:07.600Z,66.22
2023-04-11T09:05:07.906Z,59.82
2023-04-11T09:09:05.225Z,59.63
2023-04-11T09:13:06.136Z,59.73
2023-04-11T09:16:59.227Z,56.42
2023-04-11T09:21:04.894Z,56.08
2023-04-11T09:24:59.456Z,53.79
2023-04-11T09:29:00.419Z,53.47
2023-04-11T09:32:57.624Z,51.96
2023-04-11T09:36:58.236Z,49.22
2023-04-11T09:40:55.558Z,49.10
2023-04-11T09:44:57.558Z,48.87
2023-04-11T09:48:54.321Z,47.85
2023-04-11T09:52:57.660Z,47.95
2023-04-11T09:56:56.545Z,49.20
2023-04-11T10:00:56.623Z,50.03
2023-04-11T10:04:53.772Z,52.47
2023-04-11T10:08:56.019Z,50.90
2023-04-11T10:12:55.244Z,49.32
2023-04-11T10:16:57.790Z,50.52
2023-04-11T10:20:56.014Z,46.33
2023-04-11T10:24:56.770Z,46.36
2023-04-11T10:28:53.557Z,45.31
2023-04-11T10:32:54.515Z,44.99
2023-04-11T10:36:56.983Z,44.12
2023-04-11T10:40:57.833Z,43.64
2023-04-11T10:44:55.671Z,40.94
2023-04-11T10:48:50.936Z,42.16
2023-04-11T10:52:51.862Z,43.29
2023-04-11T10:56:52.790Z,41.44
2023-04-11T11:00:50.245Z,40.09
2023-04-11T11:04:51.742Z,39.99
2023-04-11T11:08:49.594Z,40.88
2023-04-11T11:12:49.114Z,40.85
2023-04-11T11:16:46.955Z,40.91
2023-04-11T11:20:49.319Z,40.94
2023-04-11T11:24:45.884Z,38.80
2023-04-11T11:28:48.509Z,39.77
2023-04-11T11:32:49.695Z,40.70
2023-04-11T11:36:51.587Z,38.99
2023-04-11T11:40:48.795Z,38.12
2023-04-11T11:44:49.964Z,37.07
2023-04-11T11:50:16.544Z,41.24
2023-04-11T11:54:18.212Z,40.27
2023-04-11T11:58:16.944Z,39.20
2023-04-11T12:02:17.614Z,40.10
2023-04-11T12:06:15.055Z,39.44
2023-04-11T12:10:15.556Z,41.10
2023-04-11T12:14:11.924Z,39.99
2023-04-11T12:18:10.969Z,41.25
2023-04-11T12:22:08.389Z,41.69
2023-04-11T12:26:09.192Z,42.14
2023-04-11T12:30:06.341Z,41.69
2023-04-11T12:34:07.516Z,41.81
2023-04-11T12:38:08.149Z,42.95
2023-04-11T12:42:11.990Z,45.87
2023-04-11T12:46:15.079Z,46.08
2023-04-11T12:50:18.045Z,46.42
2023-04-11T12:54:17.260Z,47.14
2023-04-11T12:58:21.653Z,45.48
2023-04-11T13:02:22.004Z,44.50
2023-04-11T13:06:26.160Z,45.13
2023-04-11T13:10:26.011Z,45.37
2023-04-11T13:14:29.244Z,46.21
2023-04-11T13:18:28.362Z,46.72
2023-04-11T13:22:32.930Z,48.50
2023-04-11T13:26:33.757Z,46.11
2023-04-11T13:30:37.290Z,46.38
2023-04-11T13:34:38.222Z,47.16
2023-04-11T13:38:41.747Z,48.48
2023-04-11T13:42:45.121Z,48.32
2023-04-11T13:46:47.519Z,47.30
2023-04-11T13:50:53.326Z,46.53
2023-04-11T13:54:57.027Z,49.80
2023-04-11T13:58:57.447Z,50.23
2023-04-11T14:03:01.904Z,51.38
2023-04-11T14:07:02.374Z,51.21
2023-04-11T14:11:02.986Z,52.21
2023-04-11T14:15:06.293Z,52.71
2023-04-11T14:19:06.159Z,53.11
2023-04-11T14:23:09.792Z,54.04
2023-04-11T14:27:08.021Z,53.60
2023-04-11T14:31:11.857Z,55.79
2023-04-11T14:35:13.289Z,57.12
2023-04-11T14:39:17.541Z,57.86
2023-04-11T14:43:14.181Z,58.50
2023-04-11T14:47:14.677Z,58.55
2023-04-11T14:51:11.055Z,58.56
2023-04-11T14:55:12.651Z,59.76
2023-04-11T14:59:15.996Z,62.60
2023-04-11T15:03:17.279Z,63.03
2023-04-11T15:07:15.468Z,63.86
2023-04-11T15:11:17.534Z,64.47
2023-04-11T15:15:15.882Z,65.62
2023-04-11T15:19:17.499Z,67.09
2023-04-11T15:23:15.329Z,65.98
2023-04-11T15:27:16.540Z,66.76
2023-04-11T15:31:13.944Z,65.64
2023-04-11T15:35:14.766Z,67.19
2023-04-11T15:39:12.257Z,64.01
2023-04-11T15:43:12.665Z,62.46
2023-04-11T15:47:10.811Z,59.44
2023-04-11T15:51:11.701Z,60.31
2023-04-11T15:55:08.398Z,59.59
2023-04-11T15:59:10.513Z,59.47
2023-04-11T16:03:08.867Z,58.80
2023-04-11T16:07:09.738Z,59.62
2023-04-11T16:11:06.717Z,61.25
2023-04-11T16:15:07.882Z,63.25
2023-04-11T16:19:06.471Z,65.02
2023-04-11T16:23:07.197Z,65.61
2023-04-11T16:27:04.428Z,65.60
2023-04-11T16:31:09.564Z,66.31
2023-04-11T16:35:06.346Z,62.27
2023-04-11T16:39:04.211Z,62.28
2023-04-11T16:43:06.028Z,58.95
2023-04-11T16:47:02.853Z,58.31
2023-04-11T16:51:03.911Z,57.80
2023-04-11T16:55:00.052Z,57.49
2023-04-11T16:58:47.445Z,57.57
2023-04-11T17:02:34.986Z,57.83
2023-04-11T17:06:46.093Z,60.29
2023-04-11T17:10:40.862Z,62.69
2023-04-11T17:14:41.619Z,66.73
2023-04-11T17:18:39.768Z,68.39
2023-04-11T17:22:49.668Z,71.52
2023-04-11T17:26:46.810Z,73.85
2023-04-11T17:30:45.589Z,74.91
2023-04-11T17:34:42.504Z,80.95
2023-04-11T17:38:41.556Z,80.50
2023-04-11T17:42:28.482Z,76.94
2023-04-11T17:46:22.467Z,74.09
2023-04-11T17:50:09.594Z,74.30
2023-04-11T17:54:02.621Z,75.63
2023-04-11T17:57:57.547Z,73.95
2023-04-11T18:01:50.432Z,73.69
2023-04-11T18:05:47.641Z,76.15
2023-04-11T18:09:49.262Z,72.63
2023-04-11T18:13:49.273Z,68.97
2023-04-11T18:17:52.432Z,73.72
2023-04-11T18:21:50.750Z,80.29
2023-04-11T18:25:51.343Z,92.51
2023-04-11T18:29:38.466Z,100.00
2023-04-11T18:33:32.137Z,100.00
2023-04-11T18:37:23.403Z,100.00
2023-04-11T18:41:18.660Z,100.00
2023-04-11T18:45:18.714Z,100.00
2023-04-11T18:49:20.472Z,100.00
2023-04-11T18:53:18.117Z,100.00
2023-04-11T18:57:19.889Z,100.00
2023-04-11T19:01:17.668Z,100.00
2023-04-11T19:05:20.638Z,100.00
2023-04-11T19:09:18.201Z,100.00
2023-04-11T19:13:23.250Z,100.00
2023-04-11T19:17:11.552Z,100.00
2023-04-11T19:21:04.909Z,100.00
2023-04-11T19:24:52.026Z,100.00
2023-04-11T19:28:45.343Z,100.00
2023-04-11T19:32:58.663Z,100.00
2023-04-11T19:36:59.773Z,100.00
2023-04-11T19:40:56.997Z,100.00
2023-04-11T19:44:58.208Z,100.00
2023-04-11T19:48:56.549Z,100.00
2023-04-11T19:52:56.361Z,100.00
2023-04-11T19:56:56.924Z,100.00
2023-04-11T20:00:56.270Z,100.00
2023-04-11T20:04:44.607Z,100.00
2023-04-11T20:08:31.925Z,100.00
2023-04-11T20:12:19.536Z,100.00
2023-04-11T20:16:06.705Z,100.00
2023-04-11T20:20:01.188Z,100.00
2023-04-11T20:24:06.224Z,100.00
2023-04-11T20:28:04.548Z,100.00
2023-04-11T20:32:05.992Z,100.00
2023-04-11T20:36:07.896Z,100.00
2023-04-11T20:40:09.897Z,100.00
2023-04-11T20:44:07.529Z,100.00
2023-04-11T20:48:08.949Z,100.00
2023-04-11T20:51:55.791Z,100.00
2023-04-11T20:55:42.554Z,100.00
2023-04-11T20:59:36.952Z,100.00
2023-04-11T21:03:34.746Z,100.00
2023-04-11T21:07:32.354Z,100.00
2023-04-11T21:11:33.572Z,100.00
2023-04-11T21:15:35.330Z,100.00
2023-04-11T21:19:36.563Z,100.00
2023-04-11T21:23:38.987Z,100.00
2023-04-11T21:27:40.483Z,100.00
2023-04-11T21:31:35.566Z,100.00
2023-04-11T21:35:22.354Z,100.00
2023-04-11T21:39:09.082Z,100.00
2023-04-11T21:42:56.081Z,100.00
2023-04-11T21:46:49.098Z,100.00
2023-04-11T21:50:42.147Z,100.00
2023-04-11T21:54:37.316Z,100.00
2023-04-11T21:58:38.389Z,100.00
2023-04-11T22:02:36.102Z,100.00
2023-04-11T22:06:37.318Z,100.00
2023-04-11T22:10:44.802Z,100.00
2023-04-11T22:14:53.336Z,100.00
2023-04-11T22:18:51.009Z,100.00
2023-04-11T22:22:52.124Z,100.00
2023-04-11T22:26:39.157Z,100.00
2023-04-11T22:30:26.232Z,100.00
2023-04-11T22:34:13.094Z,100.00
2023-04-11T22:38:00.326Z,100.00
2023-04-11T22:41:46.886Z,100.00
2023-04-11T22:45:40.186Z,100.00
2023-04-11T22:49:35.645Z,100.00
2023-04-11T22:53:29.233Z,100.00
2023-04-11T22:57:27.773Z,100.00
2023-04-11T23:01:31.926Z,100.00
2023-04-11T23:05:29.819Z,100.00
2023-04-11T23:09:31.476Z,100.00
2023-04-11T23:13:31.335Z,100.00
2023-04-11T23:17:35.185Z,100.00
2023-04-11T23:21:39.611Z,100.00
2023-04-11T23:25:26.735Z,100.00
2023-04-11T23:29:13.514Z,100.00
2023-04-11T23:33:00.283Z,100.00
2023-04-11T23:36:48.392Z,100.00
2023-04-11T23:40:35.375Z,100.00
2023-04-11T23:44:22.320Z,100.00
2023-04-11T23:48:11.616Z,100.00
2023-04-11T23:51:58.832Z,100.00
2023-04-11T23:55:45.631Z,100.00
2023-04-11T23:59:38.998Z,100.00
